createdAt,value
2023-01-19T00:00:54.725Z,8.96
2023-01-19T00:03:28.932Z,8.95
2023-01-19T00:05:56.300Z,8.88
2023-01-19T00:08:25.792Z,8.89
2023-01-19T00:10:53.176Z,8.88
2023-01-19T00:13:20.373Z,8.93
2023-01-19T00:15:47.701Z,8.86
2023-01-19T00:18:14.883Z,8.91
2023-01-19T00:20:44.946Z,8.95
2023-01-19T00:23:12.962Z,8.93
2023-01-19T00:25:42.837Z,8.93
2023-01-19T00:28:11.730Z,8.94
2023-01-19T00:30:42.380Z,8.93
2023-01-19T00:33:10.519Z,8.84
2023-01-19T00:35:37.893Z,8.77
2023-01-19T00:38:05.242Z,8.74
2023-01-19T00:40:32.585Z,8.75
2023-01-19T00:43:00.785Z,8.72
2023-01-19T00:45:29.316Z,8.74
2023-01-19T00:47:58.466Z,8.75
2023-01-19T00:50:27.947Z,8.81
2023-01-19T00:52:56.302Z,8.81
2023-01-19T00:55:24.326Z,8.82
2023-01-19T00:57:51.639Z,8.73
2023-01-19T01:00:20.293Z,8.70
2023-01-19T01:02:48.899Z,8.76
2023-01-19T01:05:16.520Z,8.77
2023-01-19T01:07:45.426Z,8.76
2023-01-19T01:10:24.183Z,8.79
2023-01-19T01:12:57.432Z,8.84
2023-01-19T01:15:27.163Z,8.85
2023-01-19T01:17:54.847Z,8.81
2023-01-19T01:20:25.702Z,8.82
2023-01-19T01:22:54.331Z,8.79
2023-01-19T01:25:23.673Z,8.83
2023-01-19T01:27:50.607Z,8.85
2023-01-19T01:30:21.450Z,8.86
2023-01-19T01:32:50.962Z,8.84
2023-01-19T01:35:18.933Z,8.92
2023-01-19T01:37:45.940Z,8.92
2023-01-19T01:40:15.612Z,8.95
2023-01-19T01:42:43.026Z,8.93
2023-01-19T01:45:35.631Z,8.95
2023-01-19T01:48:11.743Z,8.97
2023-01-19T01:51:08.285Z,8.95
2023-01-19T01:53:39.885Z,8.97
2023-01-19T01:56:13.255Z,8.95
2023-01-19T01:58:40.638Z,8.94
2023-01-19T02:01:29.333Z,8.92
2023-01-19T02:03:59.596Z,8.90
2023-01-19T02:06:27.125Z,8.95
2023-01-19T02:09:22.158Z,8.92
2023-01-19T02:12:09.468Z,8.99
2023-01-19T02:14:39.887Z,9.02
2023-01-19T02:17:07.648Z,9.04
2023-01-19T02:19:42.223Z,9.05
2023-01-19T02:22:22.611Z,9.07
2023-01-19T02:24:50.124Z,9.01
2023-01-19T02:27:18.385Z,9.01
2023-01-19T02:29:46.225Z,9.00
2023-01-19T02:32:14.490Z,9.00
2023-01-19T02:34:41.535Z,9.01
2023-01-19T02:37:15.905Z,9.00
2023-01-19T02:39:51.120Z,8.83
2023-01-19T02:42:21.377Z,8.80
2023-01-19T02:44:52.717Z,8.71
2023-01-19T02:47:20.471Z,8.66
2023-01-19T02:50:02.117Z,8.63
2023-01-19T02:52:29.366Z,8.65
2023-01-19T02:55:10.778Z,8.58
2023-01-19T02:57:56.672Z,8.60
2023-01-19T03:00:52.148Z,8.53
2023-01-19T03:03:46.393Z,8.48
2023-01-19T03:06:30.594Z,8.39
2023-01-19T03:09:04.564Z,8.36
2023-01-19T03:11:37.157Z,8.32
2023-01-19T03:14:11.610Z,8.26
2023-01-19T03:16:48.695Z,8.20
2023-01-19T03:19:31.702Z,8.13
2023-01-19T03:22:03.880Z,8.09
2023-01-19T03:24:37.935Z,8.04
2023-01-19T03:27:10.796Z,8.02
2023-01-19T03:29:42.433Z,7.97
2023-01-19T03:32:17.606Z,7.91
2023-01-19T03:34:48.140Z,7.83
2023-01-19T03:37:19.419Z,7.83
2023-01-19T03:39:47.397Z,7.81
2023-01-19T03:42:18.235Z,7.76
2023-01-19T03:44:50.629Z,7.73
2023-01-19T03:47:20.407Z,7.71
2023-01-19T03:49:51.016Z,7.67
2023-01-19T03:52:18.248Z,7.66
2023-01-19T03:54:45.675Z,7.65
2023-01-19T03:57:13.037Z,7.67
2023-01-19T03:59:41.435Z,7.62
2023-01-19T04:02:08.530Z,7.58
2023-01-19T04:04:40.008Z,7.56
2023-01-19T04:07:10.120Z,7.57
2023-01-19T04:09:37.813Z,7.50
2023-01-19T04:12:05.519Z,7.47
2023-01-19T04:14:33.043Z,7.45
2023-01-19T04:17:00.347Z,7.41
2023-01-19T04:19:29.060Z,7.38
2023-01-19T04:21:56.961Z,7.37
2023-01-19T04:24:24.261Z,7.37
2023-01-19T04:26:54.083Z,7.37
2023-01-19T04:29:21.551Z,7.31
2023-01-19T04:37:29.304Z,7.23
2023-01-19T04:40:02.568Z,7.22
2023-01-19T04:42:30.975Z,7.10
2023-01-19T04:44:59.117Z,7.09
2023-01-19T04:47:27.589Z,7.07
2023-01-19T04:49:54.714Z,6.99
2023-01-19T04:52:22.055Z,6.94
2023-01-19T04:54:50.158Z,6.92
2023-01-19T04:57:17.559Z,6.83
2023-01-19T04:59:44.617Z,6.82
2023-01-19T05:02:14.611Z,6.83
2023-01-19T05:04:54.073Z,6.76
2023-01-19T05:07:21.577Z,6.78
2023-01-19T05:09:48.849Z,6.79
2023-01-19T05:12:16.258Z,6.76
2023-01-19T05:14:43.465Z,6.72
2023-01-19T05:17:14.181Z,6.75
2023-01-19T05:19:41.602Z,6.71
2023-01-19T05:22:09.098Z,6.56
2023-01-19T05:24:36.139Z,6.57
2023-01-19T05:27:04.142Z,6.49
2023-01-19T05:29:31.291Z,6.39
2023-01-19T05:31:58.715Z,6.29
2023-01-19T05:34:25.689Z,6.28
2023-01-19T05:36:56.918Z,6.32
2023-01-19T05:39:24.137Z,6.31
2023-01-19T05:41:52.944Z,6.25
2023-01-19T05:44:22.481Z,6.29
2023-01-19T05:46:49.952Z,6.20
2023-01-19T05:49:24.399Z,6.23
2023-01-19T05:51:54.255Z,6.19
2023-01-19T05:54:27.609Z,6.27
2023-01-19T06:00:30.786Z,6.25
2023-01-19T06:05:48.213Z,6.22
2023-01-19T06:08:18.857Z,6.26
2023-01-19T06:13:31.518Z,6.32
2023-01-19T06:16:00.399Z,6.28
2023-01-19T06:18:28.771Z,6.23
2023-01-19T06:21:06.014Z,6.16
2023-01-19T06:23:38.115Z,6.25
2023-01-19T06:26:06.571Z,6.22
2023-01-19T06:28:37.235Z,6.26
2023-01-19T06:31:05.423Z,6.36
2023-01-19T06:33:34.566Z,6.31
2023-01-19T06:36:04.908Z,6.40
2023-01-19T06:38:33.085Z,6.38
2023-01-19T06:41:00.180Z,6.37
2023-01-19T06:43:33.502Z,6.46
2023-01-19T06:46:02.660Z,6.54
2023-01-19T06:48:30.679Z,6.64
2023-01-19T06:50:59.669Z,6.68
2023-01-19T06:53:28.444Z,6.80
2023-01-19T06:56:01.994Z,6.82
2023-01-19T06:58:31.917Z,6.91
2023-01-19T07:01:06.399Z,7.01
2023-01-19T07:03:35.856Z,7.07
2023-01-19T07:06:03.304Z,7.15
2023-01-19T07:08:30.644Z,7.21
2023-01-19T07:11:25.949Z,7.32
2023-01-19T07:13:55.769Z,7.40
2023-01-19T07:16:30.513Z,7.50
2023-01-19T07:18:57.834Z,7.56
2023-01-19T07:21:29.172Z,7.74
2023-01-19T07:23:56.674Z,7.89
2023-01-19T07:26:28.124Z,7.93
2023-01-19T07:28:56.552Z,8.00
2023-01-19T07:31:23.640Z,8.06
2023-01-19T07:33:51.233Z,8.16
2023-01-19T07:36:19.888Z,8.14
2023-01-19T07:38:47.090Z,8.16
2023-01-19T07:41:16.701Z,8.26
2023-01-19T07:43:44.044Z,8.34
2023-01-19T07:46:11.196Z,8.42
2023-01-19T07:48:38.769Z,8.56
2023-01-19T07:51:11.718Z,8.68
2023-01-19T07:53:42.062Z,8.84
2023-01-19T07:56:11.985Z,8.96
2023-01-19T07:58:39.945Z,9.05
2023-01-19T08:01:09.885Z,9.18
2023-01-19T08:06:28.945Z,9.46
2023-01-19T08:08:56.527Z,9.56
2023-01-19T08:11:23.537Z,9.73
2023-01-19T08:13:51.157Z,9.85
2023-01-19T08:16:18.130Z,10.01
2023-01-19T08:18:46.192Z,10.10
2023-01-19T08:21:13.300Z,10.31
2023-01-19T08:23:40.790Z,10.35
2023-01-19T08:26:32.885Z,10.51
2023-01-19T08:29:05.491Z,10.67
2023-01-19T08:31:39.937Z,10.82
2023-01-19T08:34:11.040Z,10.93
2023-01-19T08:36:38.808Z,11.04
2023-01-19T08:39:06.328Z,11.13
2023-01-19T08:41:33.996Z,11.27
2023-01-19T08:44:03.633Z,11.35
2023-01-19T08:46:32.944Z,11.46
2023-01-19T08:49:00.449Z,11.56
2023-01-19T08:51:29.616Z,11.67
2023-01-19T08:53:57.213Z,11.79
2023-01-19T08:56:24.654Z,11.89
2023-01-19T08:59:08.203Z,12.01
2023-01-19T09:01:39.290Z,12.20
2023-01-19T09:04:06.859Z,12.28
2023-01-19T09:06:34.258Z,12.37
2023-01-19T09:14:16.495Z,12.73
2023-01-19T09:16:43.785Z,12.80
2023-01-19T09:19:11.342Z,12.89
2023-01-19T09:21:38.625Z,13.01
2023-01-19T09:24:14.749Z,13.15
2023-01-19T09:26:41.949Z,13.27
2023-01-19T09:29:11.710Z,13.33
2023-01-19T09:31:41.144Z,13.46
2023-01-19T09:34:08.635Z,13.55
2023-01-19T09:36:37.407Z,13.66
2023-01-19T09:39:06.560Z,13.78
2023-01-19T09:41:52.283Z,14.78
2023-01-19T09:44:28.347Z,17.13
2023-01-19T09:46:55.638Z,18.91
2023-01-19T09:49:33.776Z,19.92
2023-01-19T09:52:00.952Z,20.88
2023-01-19T09:54:44.795Z,21.71
2023-01-19T09:57:17.737Z,22.33
2023-01-19T09:59:49.371Z,22.91
2023-01-19T10:02:26.626Z,23.49
2023-01-19T10:05:21.488Z,23.84
2023-01-19T10:08:08.662Z,23.46
2023-01-19T10:10:39.014Z,22.66
2023-01-19T10:13:24.299Z,22.35
2023-01-19T10:16:20.669Z,22.22
2023-01-19T10:18:51.928Z,22.24
2023-01-19T10:21:35.564Z,22.95
2023-01-19T10:24:11.256Z,22.96
2023-01-19T10:26:44.196Z,22.74
2023-01-19T10:29:36.413Z,21.75
2023-01-19T10:32:13.055Z,20.88
2023-01-19T10:34:41.729Z,20.52
2023-01-19T10:37:17.909Z,21.54
2023-01-19T10:39:54.865Z,21.91
2023-01-19T10:42:22.386Z,21.14
2023-01-19T10:44:50.511Z,20.59
2023-01-19T10:47:24.730Z,20.38
2023-01-19T10:49:52.604Z,20.96
2023-01-19T10:52:29.412Z,20.83
2023-01-19T10:54:57.563Z,20.35
2023-01-19T10:57:31.811Z,19.97
2023-01-19T10:59:59.343Z,19.60
2023-01-19T11:08:30.657Z,19.52
2023-01-19T11:11:08.409Z,18.68
2023-01-19T11:13:37.113Z,17.88
2023-01-19T11:16:23.320Z,17.48
2023-01-19T11:18:56.448Z,17.29
2023-01-19T11:21:28.064Z,17.14
2023-01-19T11:24:05.487Z,17.03
2023-01-19T11:26:48.291Z,17.03
2023-01-19T11:29:20.373Z,16.98
2023-01-19T11:31:50.631Z,16.98
2023-01-19T11:34:42.970Z,16.95
2023-01-19T11:37:16.266Z,17.05
2023-01-19T11:39:52.779Z,17.08
2023-01-19T11:42:20.629Z,17.05
2023-01-19T11:45:14.503Z,16.97
2023-01-19T11:47:47.149Z,17.00
2023-01-19T11:50:40.038Z,17.35
2023-01-19T11:53:16.979Z,18.80
2023-01-19T11:56:04.844Z,20.15
2023-01-19T12:01:28.089Z,22.30
2023-01-19T12:04:01.384Z,22.67
2023-01-19T12:06:38.636Z,23.02
2023-01-19T12:09:13.237Z,22.92
2023-01-19T12:11:57.973Z,21.35
2023-01-19T12:14:48.316Z,19.96
2023-01-19T12:17:25.946Z,19.72
2023-01-19T12:20:31.063Z,20.35
2023-01-19T12:23:37.096Z,21.26
2023-01-19T12:26:17.451Z,20.78
2023-01-19T12:29:01.477Z,20.82
2023-01-19T12:31:29.023Z,20.73
2023-01-19T12:34:25.384Z,21.46
2023-01-19T12:36:59.029Z,21.86
2023-01-19T12:39:26.691Z,21.12
2023-01-19T12:42:27.006Z,20.59
2023-01-19T12:45:17.314Z,19.92
2023-01-19T12:47:53.016Z,19.79
2023-01-19T12:50:25.758Z,20.21
2023-01-19T12:52:58.601Z,20.88
2023-01-19T12:55:37.179Z,21.26
2023-01-19T12:58:04.431Z,21.53
2023-01-19T13:00:38.737Z,21.84
2023-01-19T13:03:25.707Z,20.80
2023-01-19T13:05:55.309Z,19.95
2023-01-19T13:08:29.898Z,19.32
2023-01-19T13:11:00.520Z,18.82
2023-01-19T13:13:27.974Z,18.46
2023-01-19T13:15:56.630Z,18.35
2023-01-19T13:18:31.644Z,18.06
2023-01-19T13:21:10.360Z,17.80
2023-01-19T13:24:02.264Z,17.62
2023-01-19T13:32:39.722Z,17.17
2023-01-19T13:35:20.337Z,17.16
2023-01-19T13:37:48.898Z,17.16
2023-01-19T13:40:25.590Z,17.00
2023-01-19T13:42:54.407Z,16.90
2023-01-19T13:48:22.338Z,16.82
2023-01-19T13:51:02.453Z,16.75
2023-01-19T13:53:30.588Z,16.62
2023-01-19T13:56:22.197Z,16.51
2023-01-19T13:58:59.312Z,16.39
2023-01-19T14:01:29.547Z,16.26
2023-01-19T14:03:57.517Z,16.19
2023-01-19T14:06:33.789Z,16.07
2023-01-19T14:09:08.168Z,16.05
2023-01-19T14:11:38.240Z,15.93
2023-01-19T14:14:05.227Z,15.89
2023-01-19T14:16:35.271Z,15.80
2023-01-19T14:19:04.791Z,15.74
2023-01-19T14:21:40.716Z,15.75
2023-01-19T14:24:17.481Z,15.64
2023-01-19T14:26:54.032Z,15.70
2023-01-19T14:29:33.252Z,15.70
2023-01-19T14:32:02.918Z,15.64
2023-01-19T14:34:48.108Z,15.58
2023-01-19T14:37:29.398Z,15.43
2023-01-19T14:40:17.692Z,15.39
2023-01-19T14:42:52.627Z,15.31
2023-01-19T14:45:21.067Z,15.22
2023-01-19T14:48:01.211Z,15.20
2023-01-19T14:50:33.221Z,15.10
2023-01-19T14:53:08.624Z,15.05
2023-01-19T14:55:39.996Z,14.89
2023-01-19T14:58:15.167Z,14.91
2023-01-19T15:00:46.614Z,14.78
2023-01-19T15:03:14.857Z,14.70
2023-01-19T15:05:50.429Z,14.53
2023-01-19T15:08:24.733Z,14.53
2023-01-19T15:10:51.872Z,14.41
2023-01-19T15:13:25.673Z,14.22
2023-01-19T15:15:55.430Z,14.19
2023-01-19T15:18:26.680Z,14.05
2023-01-19T15:21:05.233Z,13.98
2023-01-19T15:23:33.483Z,13.87
2023-01-19T15:26:07.893Z,13.75
2023-01-19T15:28:35.331Z,13.67
2023-01-19T15:31:05.534Z,13.58
2023-01-19T15:36:54.535Z,13.44
2023-01-19T15:39:26.591Z,13.37
2023-01-19T15:41:56.686Z,13.30
2023-01-19T15:44:24.181Z,13.24
2023-01-19T15:49:51.703Z,13.18
2023-01-19T15:52:24.525Z,13.10
2023-01-19T15:54:59.675Z,13.07
2023-01-19T15:57:27.259Z,13.04
2023-01-19T15:59:54.849Z,12.98
2023-01-19T16:02:23.469Z,12.89
2023-01-19T16:04:50.636Z,12.89
2023-01-19T16:07:20.201Z,12.83
2023-01-19T16:09:52.319Z,12.80
2023-01-19T16:12:20.105Z,12.79
2023-01-19T16:14:47.175Z,12.77
2023-01-19T16:17:14.638Z,12.70
2023-01-19T16:19:41.797Z,12.68
2023-01-19T16:22:12.261Z,12.64
2023-01-19T16:24:39.556Z,12.57
2023-01-19T16:27:08.940Z,12.53
2023-01-19T16:29:36.431Z,12.49
2023-01-19T16:32:12.604Z,12.48
2023-01-19T16:34:39.815Z,12.37
2023-01-19T16:37:07.743Z,12.34
2023-01-19T16:39:34.860Z,12.28
2023-01-19T16:42:02.632Z,12.31
2023-01-19T16:44:30.627Z,12.31
2023-01-19T16:46:58.126Z,12.35
2023-01-19T16:49:28.523Z,12.31
2023-01-19T16:51:58.685Z,12.25
2023-01-19T16:54:28.664Z,12.23
2023-01-19T16:56:57.768Z,12.28
2023-01-19T16:59:29.237Z,12.28
2023-01-19T17:01:57.949Z,12.27
2023-01-19T17:04:26.566Z,12.22
2023-01-19T17:06:55.162Z,12.19
2023-01-19T17:09:22.380Z,12.19
2023-01-19T17:11:56.571Z,12.25
2023-01-19T17:14:24.774Z,12.16
2023-01-19T17:16:53.220Z,12.14
2023-01-19T17:19:22.325Z,12.05
2023-01-19T17:21:50.089Z,12.05
2023-01-19T17:24:22.562Z,11.99
2023-01-19T17:26:50.075Z,11.94
2023-01-19T17:29:17.651Z,11.93
2023-01-19T17:31:46.037Z,11.91
2023-01-19T17:37:02.956Z,11.92
2023-01-19T17:39:35.696Z,11.90
2023-01-19T17:42:06.253Z,11.90
2023-01-19T17:44:37.376Z,11.88
2023-01-19T17:47:05.088Z,11.82
2023-01-19T17:49:34.765Z,11.76
2023-01-19T17:52:02.376Z,11.78
2023-01-19T17:54:29.409Z,11.74
2023-01-19T17:56:57.007Z,11.75
2023-01-19T17:59:30.579Z,11.73
2023-01-19T18:01:58.964Z,11.65
2023-01-19T18:04:26.128Z,11.63
2023-01-19T18:06:57.598Z,11.60
2023-01-19T18:09:24.732Z,11.54
2023-01-19T18:11:52.357Z,11.56
2023-01-19T18:14:19.840Z,11.54
2023-01-19T18:17:06.421Z,11.48
2023-01-19T18:19:35.194Z,11.38
2023-01-19T18:22:02.505Z,11.36
2023-01-19T18:24:30.492Z,11.28
2023-01-19T18:27:00.106Z,11.27
2023-01-19T18:29:42.947Z,11.19
2023-01-19T18:32:11.130Z,11.14
2023-01-19T18:34:39.714Z,11.13
2023-01-19T18:37:07.459Z,11.11
2023-01-19T18:39:34.561Z,11.06
2023-01-19T18:42:02.028Z,11.05
2023-01-19T18:44:29.105Z,10.98
2023-01-19T18:46:56.900Z,10.99
2023-01-19T18:49:23.951Z,11.07
2023-01-19T18:51:51.385Z,11.04
2023-01-19T18:54:18.368Z,10.99
2023-01-19T18:56:46.377Z,10.92
2023-01-19T18:59:13.589Z,10.90
2023-01-19T19:01:41.550Z,10.77
2023-01-19T19:04:16.972Z,10.68
2023-01-19T19:10:24.478Z,10.72
2023-01-19T19:13:07.839Z,10.64
2023-01-19T19:15:43.231Z,10.62
2023-01-19T19:21:14.585Z,10.58
2023-01-19T19:23:42.506Z,10.49
2023-01-19T19:26:40.917Z,10.55
2023-01-19T19:29:15.449Z,10.49
2023-01-19T19:31:43.088Z,10.40
2023-01-19T19:40:16.979Z,10.27
2023-01-19T19:51:28.282Z,10.25
2023-01-19T19:53:59.082Z,10.31
2023-01-19T19:56:30.597Z,10.21
2023-01-19T19:59:03.319Z,10.22
2023-01-19T20:01:33.721Z,10.32
2023-01-19T20:04:08.938Z,10.39
2023-01-19T20:06:49.016Z,10.38
2023-01-19T20:09:18.236Z,10.40
2023-01-19T20:11:48.056Z,10.42
2023-01-19T20:14:16.395Z,10.49
2023-01-19T20:16:43.915Z,10.50
2023-01-19T20:19:12.219Z,10.43
2023-01-19T20:21:44.493Z,10.45
2023-01-19T20:24:18.715Z,10.46
2023-01-19T20:26:58.194Z,10.43
2023-01-19T20:29:28.117Z,10.38
2023-01-19T20:31:56.864Z,10.38
2023-01-19T20:34:29.522Z,10.38
2023-01-19T20:36:58.251Z,10.27
2023-01-19T20:39:26.056Z,10.29
2023-01-19T20:41:53.591Z,10.26
2023-01-19T20:44:23.569Z,10.26
2023-01-19T20:46:50.956Z,10.24
2023-01-19T20:49:18.807Z,10.23
2023-01-19T20:51:47.064Z,10.22
2023-01-19T20:54:17.538Z,10.26
2023-01-19T20:56:44.910Z,10.28
2023-01-19T20:59:13.609Z,10.25
2023-01-19T21:01:41.874Z,10.29
2023-01-19T21:04:12.803Z,10.21
2023-01-19T21:06:42.585Z,10.20
2023-01-19T21:09:11.141Z,10.15
2023-01-19T21:11:40.024Z,10.18
2023-01-19T21:14:12.250Z,10.12
2023-01-19T21:16:47.756Z,10.10
2023-01-19T21:19:35.743Z,10.07
2023-01-19T21:22:03.514Z,10.07
2023-01-19T21:27:34.814Z,10.03
2023-01-19T21:30:05.880Z,10.01
2023-01-19T21:32:34.474Z,9.98
2023-01-19T21:37:55.548Z,10.03
2023-01-19T21:40:23.836Z,9.97
2023-01-19T21:42:53.082Z,9.94
2023-01-19T21:45:21.135Z,9.89
2023-01-19T21:47:48.229Z,9.80
2023-01-19T21:50:16.445Z,9.82
2023-01-19T21:52:44.365Z,9.81
2023-01-19T21:55:12.238Z,9.80
2023-01-19T21:57:41.765Z,9.84
2023-01-19T22:00:11.754Z,9.84
2023-01-19T22:02:39.341Z,9.82
2023-01-19T22:05:07.273Z,9.86
2023-01-19T22:07:36.878Z,9.86
2023-01-19T22:10:06.333Z,9.87
2023-01-19T22:12:33.469Z,9.84
2023-01-19T22:15:00.813Z,9.85
2023-01-19T22:17:28.178Z,9.83
2023-01-19T22:19:58.274Z,9.85
2023-01-19T22:22:25.465Z,9.83
2023-01-19T22:24:52.818Z,9.84
2023-01-19T22:27:19.930Z,9.77
2023-01-19T22:29:49.841Z,9.80
2023-01-19T22:32:16.987Z,9.74
2023-01-19T22:34:44.451Z,9.73
2023-01-19T22:37:11.431Z,9.74
2023-01-19T22:39:38.932Z,9.74
2023-01-19T22:42:06.194Z,9.70
2023-01-19T22:44:35.224Z,9.70
2023-01-19T22:47:02.282Z,9.68
2023-01-19T22:49:29.819Z,9.70
2023-01-19T22:51:57.445Z,9.68
2023-01-19T22:54:24.761Z,9.68
2023-01-19T22:56:51.828Z,9.66
2023-01-19T22:59:19.185Z,9.65
2023-01-19T23:01:47.320Z,9.62
2023-01-19T23:04:16.116Z,9.57
2023-01-19T23:06:47.157Z,9.51
2023-01-19T23:09:14.851Z,9.44
2023-01-19T23:11:44.928Z,9.36
2023-01-19T23:14:17.813Z,9.35
2023-01-19T23:16:47.755Z,9.25
2023-01-19T23:19:19.886Z,9.26
2023-01-19T23:21:51.023Z,9.19
2023-01-19T23:24:24.905Z,9.13
2023-01-19T23:26:52.343Z,9.10
2023-01-19T23:29:19.864Z,9.08
2023-01-19T23:31:49.586Z,9.06
2023-01-19T23:34:16.848Z,9.01
2023-01-19T23:36:45.976Z,8.98
2023-01-19T23:39:19.153Z,8.95
2023-01-19T23:41:47.689Z,8.96
2023-01-19T23:44:17.416Z,8.92
2023-01-19T23:46:45.644Z,8.88
2023-01-19T23:49:13.338Z,8.87
2023-01-19T23:51:41.623Z,8.88
2023-01-19T23:54:09.390Z,8.89
2023-01-19T23:56:38.277Z,8.86
2023-01-19T23:59:08.328Z,8.90
